Moss Hill, Texas
Current Conditions -  °F | °C
As of 8:14 AM on Thursday 29 Jan 2015 (Local Time) from K6R3 Reporting Station
Light Rain Light Rain  
Wind Chill: 57°   Ceiling: NA
Heat Index: 57°   Visibility: 0mi
Dew Point: 57°   Wind: 0mph
Humidity: 100%   Direction: NA
Pressure: 30.23"   Gusts: NA
Location:  30.0821°N, 94.7401°W
Report Text: K6R3 291414Z AUTO 00000KT M1/4SM -RA 14/14 A3023 RMK AO2
Loading
Personal Weather Stations






























Interactive Weather Map New forecast layout! Learn more

10-Day Weather Forecast

Advertisements
Track Severe Weather on mobile